sensor_id;sensor_type;location;lat;lon;timestamp;pressure;altitude;pressure_sealevel;temperature;humidity
40918;BME280;26644;50.248;19.032;2022-08-05T00:02:37;98163.97;;;18.71;60.08
40918;BME280;26644;50.248;19.032;2022-08-05T00:05:39;98150.63;;;18.64;60.08
40918;BME280;26644;50.248;19.032;2022-08-05T00:08:43;98168.25;;;18.68;60.02
40918;BME280;26644;50.248;19.032;2022-08-05T00:11:46;98164.97;;;18.66;60.35
40918;BME280;26644;50.248;19.032;2022-08-05T00:14:48;98103.00;;;18.23;60.13
40918;BME280;26644;50.248;19.032;2022-08-05T00:17:50;98165.88;;;18.58;60.26
40918;BME280;26644;50.248;19.032;2022-08-05T00:20:52;98155.91;;;18.57;60.40
40918;BME280;26644;50.248;19.032;2022-08-05T00:23:55;98156.09;;;18.52;60.62
40918;BME280;26644;50.248;19.032;2022-08-05T00:26:58;98157.59;;;18.49;60.60
40918;BME280;26644;50.248;19.032;2022-08-05T00:30:00;98127.63;;;18.34;60.50
40918;BME280;26644;50.248;19.032;2022-08-05T00:33:02;98151.44;;;18.43;60.72
40918;BME280;26644;50.248;19.032;2022-08-05T00:36:04;98140.81;;;18.37;60.74
40918;BME280;26644;50.248;19.032;2022-08-05T00:39:06;98144.28;;;18.34;61.26
40918;BME280;26644;50.248;19.032;2022-08-05T00:42:10;98143.19;;;18.26;61.78
40918;BME280;26644;50.248;19.032;2022-08-05T00:45:12;98141.28;;;18.18;62.62
40918;BME280;26644;50.248;19.032;2022-08-05T00:48:16;98074.81;;;17.62;62.93
40918;BME280;26644;50.248;19.032;2022-08-05T00:51:18;98143.53;;;17.94;63.49
40918;BME280;26644;50.248;19.032;2022-08-05T00:54:21;98130.69;;;17.90;62.91
40918;BME280;26644;50.248;19.032;2022-08-05T00:57:24;98137.19;;;17.94;62.95
40918;BME280;26644;50.248;19.032;2022-08-05T01:00:26;98129.06;;;17.89;62.66
40918;BME280;26644;50.248;19.032;2022-08-05T01:03:28;98133.78;;;17.88;62.80
40918;BME280;26644;50.248;19.032;2022-08-05T01:06:30;98133.16;;;17.83;63.01
40918;BME280;26644;50.248;19.032;2022-08-05T01:09:32;98109.41;;;17.64;62.83
40918;BME280;26644;50.248;19.032;2022-08-05T01:12:36;98130.28;;;17.70;63.36
40918;BME280;26644;50.248;19.032;2022-08-05T01:15:42;98128.84;;;17.64;63.56
40918;BME280;26644;50.248;19.032;2022-08-05T01:18:51;98121.88;;;17.58;63.86
40918;BME280;26644;50.248;19.032;2022-08-05T01:22:09;98087.34;;;17.29;64.99
40918;BME280;26644;50.248;19.032;2022-08-05T01:25:36;98116.34;;;17.40;65.42
40918;BME280;26644;50.248;19.032;2022-08-05T01:28:44;98108.72;;;17.28;65.27
40918;BME280;26644;50.248;19.032;2022-08-05T01:31:49;98101.56;;;17.19;65.65
40918;BME280;26644;50.248;19.032;2022-08-05T01:34:55;98097.22;;;17.09;65.85
40918;BME280;26644;50.248;19.032;2022-08-05T01:37:58;98112.03;;;17.13;66.31
40918;BME280;26644;50.248;19.032;2022-08-05T01:41:02;98085.50;;;16.94;66.55
40918;BME280;26644;50.248;19.032;2022-08-05T01:44:07;98100.81;;;17.01;66.59
40918;BME280;26644;50.248;19.032;2022-08-05T01:47:10;98107.69;;;16.94;66.80
40918;BME280;26644;50.248;19.032;2022-08-05T01:50:16;98104.75;;;16.91;67.08
40918;BME280;26644;50.248;19.032;2022-08-05T01:53:19;98100.50;;;16.85;67.23
40918;BME280;26644;50.248;19.032;2022-08-05T01:56:27;98094.34;;;16.79;67.44
40918;BME280;26644;50.248;19.032;2022-08-05T01:59:32;98084.41;;;16.69;67.88
40918;BME280;26644;50.248;19.032;2022-08-05T02:02:37;98095.16;;;16.71;68.04
40918;BME280;26644;50.248;19.032;2022-08-05T02:05:40;98088.16;;;16.65;68.18
40918;BME280;26644;50.248;19.032;2022-08-05T02:08:44;98090.28;;;16.59;68.23
40918;BME280;26644;50.248;19.032;2022-08-05T02:11:48;98092.09;;;16.55;68.74
40918;BME280;26644;50.248;19.032;2022-08-05T02:15:05;98076.44;;;16.41;68.97
40918;BME280;26644;50.248;19.032;2022-08-05T02:18:14;98088.16;;;16.47;68.66
40918;BME280;26644;50.248;19.032;2022-08-05T02:21:21;98084.41;;;16.43;69.11
40918;BME280;26644;50.248;19.032;2022-08-05T02:24:27;98081.47;;;16.39;69.23
40918;BME280;26644;50.248;19.032;2022-08-05T02:27:35;98075.75;;;16.36;69.56
40918;BME280;26644;50.248;19.032;2022-08-05T02:30:43;98076.91;;;16.35;69.60
40918;BME280;26644;50.248;19.032;2022-08-05T02:33:49;98065.38;;;16.24;69.77
40918;BME280;26644;50.248;19.032;2022-08-05T02:36:54;98077.56;;;16.32;70.06
40918;BME280;26644;50.248;19.032;2022-08-05T02:39:57;98078.72;;;16.31;69.87
40918;BME280;26644;50.248;19.032;2022-08-05T02:43:01;98072.50;;;16.25;69.95
40918;BME280;26644;50.248;19.032;2022-08-05T02:46:05;98071.19;;;16.22;70.32
40918;BME280;26644;50.248;19.032;2022-08-05T02:49:07;98069.59;;;16.21;70.57
40918;BME280;26644;50.248;19.032;2022-08-05T02:52:14;98069.59;;;16.21;70.39
40918;BME280;26644;50.248;19.032;2022-08-05T02:55:17;98067.78;;;16.17;70.64
40918;BME280;26644;50.248;19.032;2022-08-05T02:58:20;98054.44;;;16.10;70.78
40918;BME280;26644;50.248;19.032;2022-08-05T03:01:24;98066.47;;;16.14;70.47
40918;BME280;26644;50.248;19.032;2022-08-05T03:04:27;98070.06;;;16.23;70.38
40918;BME280;26644;50.248;19.032;2022-08-05T03:07:30;98070.56;;;16.25;70.41
40918;BME280;26644;50.248;19.032;2022-08-05T03:10:32;98065.50;;;16.27;70.60
40918;BME280;26644;50.248;19.032;2022-08-05T03:13:34;98062.72;;;16.27;70.61
40918;BME280;26644;50.248;19.032;2022-08-05T03:16:37;98063.41;;;16.24;70.45
40918;BME280;26644;50.248;19.032;2022-08-05T03:19:39;98052.97;;;16.21;70.34
40918;BME280;26644;50.248;19.032;2022-08-05T03:22:40;98052.16;;;16.21;70.23
40918;BME280;26644;50.248;19.032;2022-08-05T03:25:42;98066.34;;;16.28;70.29
40918;BME280;26644;50.248;19.032;2022-08-05T03:28:45;98044.31;;;16.14;70.35
40918;BME280;26644;50.248;19.032;2022-08-05T03:31:48;98051.66;;;16.19;70.35
40918;BME280;26644;50.248;19.032;2022-08-05T03:34:51;98051.97;;;16.17;70.76
40918;BME280;26644;50.248;19.032;2022-08-05T03:37:55;98066.16;;;16.24;70.94
40918;BME280;26644;50.248;19.032;2022-08-05T03:40:57;98001.47;;;15.85;70.94
40918;BME280;26644;50.248;19.032;2022-08-05T03:43:59;98065.16;;;16.29;71.07
40918;BME280;26644;50.248;19.032;2022-08-05T03:47:02;98042.88;;;16.17;70.88
40918;BME280;26644;50.248;19.032;2022-08-05T03:50:04;98062.91;;;16.40;71.08
40918;BME280;26644;50.248;19.032;2022-08-05T03:53:09;98068.91;;;16.51;70.82
40918;BME280;26644;50.248;19.032;2022-08-05T03:56:19;98064.28;;;16.90;70.92
40918;BME280;26644;50.248;19.032;2022-08-05T03:59:26;98049.66;;;17.19;69.92
40918;BME280;26644;50.248;19.032;2022-08-05T04:02:31;98061.41;;;17.64;69.57
40918;BME280;26644;50.248;19.032;2022-08-05T04:05:35;98072.56;;;18.06;68.84
40918;BME280;26644;50.248;19.032;2022-08-05T04:08:39;98076.22;;;18.40;68.45
40918;BME280;26644;50.248;19.032;2022-08-05T04:11:42;98059.09;;;18.59;68.20
40918;BME280;26644;50.248;19.032;2022-08-05T04:14:44;98081.81;;;19.07;67.91
40918;BME280;26644;50.248;19.032;2022-08-05T04:17:48;98081.53;;;19.46;66.82
40918;BME280;26644;50.248;19.032;2022-08-05T04:20:53;98081.06;;;19.81;66.06
40918;BME280;26644;50.248;19.032;2022-08-05T04:23:56;98084.63;;;20.06;65.37
40918;BME280;26644;50.248;19.032;2022-08-05T04:26:58;98082.53;;;20.28;65.05
40918;BME280;26644;50.248;19.032;2022-08-05T04:30:00;98081.13;;;20.62;64.70
40918;BME280;26644;50.248;19.032;2022-08-05T04:33:03;98087.28;;;20.96;63.70
40918;BME280;26644;50.248;19.032;2022-08-05T04:36:06;98087.94;;;21.21;62.20
40918;BME280;26644;50.248;19.032;2022-08-05T04:39:09;98067.13;;;21.35;60.82
40918;BME280;26644;50.248;19.032;2022-08-05T04:42:10;98079.44;;;21.66;60.29
40918;BME280;26644;50.248;19.032;2022-08-05T04:45:12;98080.34;;;21.70;59.74
40918;BME280;26644;50.248;19.032;2022-08-05T04:48:15;98080.09;;;21.75;59.09
40918;BME280;26644;50.248;19.032;2022-08-05T04:51:17;98077.34;;;21.95;58.76
40918;BME280;26644;50.248;19.032;2022-08-05T04:54:19;98037.38;;;21.74;58.12
40918;BME280;26644;50.248;19.032;2022-08-05T04:57:21;98071.41;;;21.96;58.50
40918;BME280;26644;50.248;19.032;2022-08-05T05:00:23;98063.56;;;21.86;58.50
40918;BME280;26644;50.248;19.032;2022-08-05T05:03:26;98066.03;;;21.55;58.50
40918;BME280;26644;50.248;19.032;2022-08-05T05:06:28;98068.09;;;21.11;58.26
40918;BME280;26644;50.248;19.032;2022-08-05T05:09:30;98071.28;;;20.52;58.87
40918;BME280;26644;50.248;19.032;2022-08-05T05:12:32;98069.75;;;20.02;60.10
40918;BME280;26644;50.248;19.032;2022-08-05T05:15:34;98073.53;;;19.69;60.92
40918;BME280;26644;50.248;19.032;2022-08-05T05:18:37;98064.47;;;19.47;61.61
40918;BME280;26644;50.248;19.032;2022-08-05T05:21:39;98074.47;;;19.36;62.32
40918;BME280;26644;50.248;19.032;2022-08-05T05:24:41;98067.63;;;19.33;62.97
40918;BME280;26644;50.248;19.032;2022-08-05T05:27:43;98069.25;;;19.47;62.97
40918;BME280;26644;50.248;19.032;2022-08-05T05:30:45;98077.69;;;19.75;62.91
40918;BME280;26644;50.248;19.032;2022-08-05T05:33:48;98085.25;;;20.40;62.69
40918;BME280;26644;50.248;19.032;2022-08-05T05:36:50;98083.06;;;21.18;61.47
40918;BME280;26644;50.248;19.032;2022-08-05T05:39:52;98087.81;;;21.66;59.90
40918;BME280;26644;50.248;19.032;2022-08-05T05:42:54;98086.75;;;21.86;59.08
40918;BME280;26644;50.248;19.032;2022-08-05T05:45:56;98095.44;;;22.36;58.44
40918;BME280;26644;50.248;19.032;2022-08-05T05:48:59;98092.81;;;22.83;56.93
40918;BME280;26644;50.248;19.032;2022-08-05T05:52:01;98091.63;;;22.84;56.38
40918;BME280;26644;50.248;19.032;2022-08-05T05:55:05;98090.38;;;23.01;55.92
40918;BME280;26644;50.248;19.032;2022-08-05T05:58:08;98107.25;;;23.04;55.55
40918;BME280;26644;50.248;19.032;2022-08-05T06:01:10;98104.25;;;23.36;55.69
40918;BME280;26644;50.248;19.032;2022-08-05T06:04:13;98092.22;;;23.86;54.98
40918;BME280;26644;50.248;19.032;2022-08-05T06:07:15;98095.41;;;24.68;54.65
40918;BME280;26644;50.248;19.032;2022-08-05T06:10:17;98094.81;;;25.23;53.50
40918;BME280;26644;50.248;19.032;2022-08-05T06:13:18;98084.22;;;25.47;51.57
40918;BME280;26644;50.248;19.032;2022-08-05T06:16:20;98092.22;;;25.45;51.39
40918;BME280;26644;50.248;19.032;2022-08-05T06:19:24;98088.75;;;25.59;51.46
40918;BME280;26644;50.248;19.032;2022-08-05T06:22:28;98094.19;;;25.93;50.40
40918;BME280;26644;50.248;19.032;2022-08-05T06:25:30;98093.56;;;26.14;50.33
40918;BME280;26644;50.248;19.032;2022-08-05T06:28:31;98062.16;;;26.05;49.71
40918;BME280;26644;50.248;19.032;2022-08-05T06:31:33;98091.06;;;26.76;49.71
40918;BME280;26644;50.248;19.032;2022-08-05T06:34:36;98096.88;;;27.44;48.70
40918;BME280;26644;50.248;19.032;2022-08-05T06:37:38;98102.94;;;27.57;47.46
40918;BME280;26644;50.248;19.032;2022-08-05T06:40:41;98097.28;;;27.79;47.63
40918;BME280;26644;50.248;19.032;2022-08-05T06:43:43;98102.47;;;28.31;47.25
40918;BME280;26644;50.248;19.032;2022-08-05T06:46:44;98111.50;;;29.07;46.46
40918;BME280;26644;50.248;19.032;2022-08-05T06:49:48;98116.75;;;29.72;45.59
40918;BME280;26644;50.248;19.032;2022-08-05T06:52:49;98115.69;;;30.42;44.39
40918;BME280;26644;50.248;19.032;2022-08-05T06:55:51;98111.03;;;30.59;43.17
40918;BME280;26644;50.248;19.032;2022-08-05T06:58:53;98105.75;;;30.96;43.05
40918;BME280;26644;50.248;19.032;2022-08-05T07:01:55;98115.69;;;30.80;41.82
40918;BME280;26644;50.248;19.032;2022-08-05T07:05:01;98111.25;;;31.07;41.83
40918;BME280;26644;50.248;19.032;2022-08-05T07:08:04;98115.69;;;31.39;41.51
40918;BME280;26644;50.248;19.032;2022-08-05T07:11:08;98112.00;;;31.11;40.57
40918;BME280;26644;50.248;19.032;2022-08-05T07:14:10;98105.75;;;30.96;40.97
40918;BME280;26644;50.248;19.032;2022-08-05T07:17:29;98113.81;;;30.97;40.54
40918;BME280;26644;50.248;19.032;2022-08-05T07:20:33;98106.94;;;30.26;40.78
40918;BME280;26644;50.248;19.032;2022-08-05T07:23:35;98099.94;;;29.99;41.94
40918;BME280;26644;50.248;19.032;2022-08-05T07:26:37;98115.28;;;30.78;41.69
40918;BME280;26644;50.248;19.032;2022-08-05T07:29:39;98117.84;;;31.82;40.97
40918;BME280;26644;50.248;19.032;2022-08-05T07:32:41;98109.00;;;32.47;40.61
40918;BME280;26644;50.248;19.032;2022-08-05T07:35:44;98118.75;;;33.07;39.45
40918;BME280;26644;50.248;19.032;2022-08-05T07:38:46;98112.69;;;33.41;38.82
40918;BME280;26644;50.248;19.032;2022-08-05T07:41:48;98122.41;;;33.07;37.85
40918;BME280;26644;50.248;19.032;2022-08-05T07:44:50;98120.38;;;33.44;37.68
40918;BME280;26644;50.248;19.032;2022-08-05T07:47:52;98116.06;;;33.36;37.10
40918;BME280;26644;50.248;19.032;2022-08-05T07:50:55;98124.59;;;32.79;37.17
40918;BME280;26644;50.248;19.032;2022-08-05T07:53:57;98099.53;;;32.94;37.44
40918;BME280;26644;50.248;19.032;2022-08-05T07:56:59;98117.22;;;33.39;36.69
40918;BME280;26644;50.248;19.032;2022-08-05T08:00:03;98110.63;;;33.62;36.87
40918;BME280;26644;50.248;19.032;2022-08-05T08:03:13;98117.56;;;33.94;36.79
40918;BME280;26644;50.248;19.032;2022-08-05T08:06:16;98104.66;;;34.06;36.39
40918;BME280;26644;50.248;19.032;2022-08-05T08:09:18;98126.03;;;34.73;36.10
40918;BME280;26644;50.248;19.032;2022-08-05T08:12:20;98123.47;;;34.62;35.06
40918;BME280;26644;50.248;19.032;2022-08-05T08:15:22;98124.56;;;35.10;35.11
40918;BME280;26644;50.248;19.032;2022-08-05T08:18:23;98091.50;;;35.52;35.29
40918;BME280;26644;50.248;19.032;2022-08-05T08:21:27;98124.78;;;36.41;34.74
40918;BME280;26644;50.248;19.032;2022-08-05T08:24:29;98122.06;;;36.60;33.31
40918;BME280;26644;50.248;19.032;2022-08-05T08:27:31;98125.47;;;35.85;33.15
40918;BME280;26644;50.248;19.032;2022-08-05T08:30:33;98125.91;;;35.83;33.39
40918;BME280;26644;50.248;19.032;2022-08-05T08:33:35;98123.66;;;35.78;32.83
40918;BME280;26644;50.248;19.032;2022-08-05T08:36:38;98132.97;;;36.04;33.05
40918;BME280;26644;50.248;19.032;2022-08-05T08:39:40;98136.63;;;36.18;31.77
40918;BME280;26644;50.248;19.032;2022-08-05T08:42:45;98096.41;;;36.12;31.92
40918;BME280;26644;50.248;19.032;2022-08-05T08:45:51;98136.19;;;36.76;30.95
40918;BME280;26644;50.248;19.032;2022-08-05T08:48:55;98130.84;;;37.10;31.01
40918;BME280;26644;50.248;19.032;2022-08-05T08:52:04;98131.22;;;36.90;30.20
40918;BME280;26644;50.248;19.032;2022-08-05T08:55:08;98136.16;;;37.21;31.05
40918;BME280;26644;50.248;19.032;2022-08-05T08:58:14;98136.09;;;37.74;30.63
40918;BME280;26644;50.248;19.032;2022-08-05T09:01:16;98136.50;;;38.13;30.37
40918;BME280;26644;50.248;19.032;2022-08-05T09:04:18;98130.81;;;38.23;29.48
40918;BME280;26644;50.248;19.032;2022-08-05T09:07:22;98129.22;;;38.40;29.83
40918;BME280;26644;50.248;19.032;2022-08-05T09:10:23;98133.03;;;38.84;29.46
40918;BME280;26644;50.248;19.032;2022-08-05T09:13:26;98131.91;;;38.90;29.58
40918;BME280;26644;50.248;19.032;2022-08-05T09:16:28;98134.47;;;39.50;28.85
40918;BME280;26644;50.248;19.032;2022-08-05T09:19:29;98130.75;;;40.01;27.89
40918;BME280;26644;50.248;19.032;2022-08-05T09:23:04;98128.03;;;40.22;25.53
40918;BME280;26644;50.248;19.032;2022-08-05T09:26:08;98099.03;;;39.86;26.54
40918;BME280;26644;50.248;19.032;2022-08-05T09:29:11;98101.75;;;39.23;26.19
40918;BME280;26644;50.248;19.032;2022-08-05T09:32:14;98095.28;;;38.76;26.46
40918;BME280;26644;50.248;19.032;2022-08-05T09:35:18;98105.84;;;38.33;26.99
40918;BME280;26644;50.248;19.032;2022-08-05T09:38:21;98104.53;;;38.80;27.18
40918;BME280;26644;50.248;19.032;2022-08-05T09:41:24;98102.41;;;39.08;26.65
40918;BME280;26644;50.248;19.032;2022-08-05T09:44:34;98104.41;;;39.26;26.33
40918;BME280;26644;50.248;19.032;2022-08-05T09:47:39;98094.69;;;39.24;26.59
40918;BME280;26644;50.248;19.032;2022-08-05T09:50:41;98094.56;;;39.09;26.33
40918;BME280;26644;50.248;19.032;2022-08-05T09:53:49;98105.25;;;39.18;26.46
40918;BME280;26644;50.248;19.032;2022-08-05T09:56:51;98099.56;;;39.42;26.90
40918;BME280;26644;50.248;19.032;2022-08-05T09:59:56;98089.06;;;39.39;26.53
40918;BME280;26644;50.248;19.032;2022-08-05T10:03:08;98091.69;;;39.61;26.44
40918;BME280;26644;50.248;19.032;2022-08-05T10:06:10;98088.63;;;39.89;26.11
40918;BME280;26644;50.248;19.032;2022-08-05T10:09:15;98090.53;;;39.68;25.34
40918;BME280;26644;50.248;19.032;2022-08-05T10:12:17;98089.38;;;39.74;25.29
40918;BME280;26644;50.248;19.032;2022-08-05T10:15:24;98078.91;;;39.86;25.59
40918;BME280;26644;50.248;19.032;2022-08-05T10:18:26;98069.84;;;40.12;25.34
40918;BME280;26644;50.248;19.032;2022-08-05T10:21:31;98083.94;;;39.43;24.74
40918;BME280;26644;50.248;19.032;2022-08-05T10:24:34;98063.81;;;39.19;24.58
40918;BME280;26644;50.248;19.032;2022-08-05T10:27:37;98080.47;;;39.39;25.35
40918;BME280;26644;50.248;19.032;2022-08-05T10:30:39;98075.69;;;38.74;24.80
40918;BME280;26644;50.248;19.032;2022-08-05T10:33:41;98060.75;;;38.33;25.45
40918;BME280;26644;50.248;19.032;2022-08-05T10:36:43;98048.00;;;37.88;25.37
40918;BME280;26644;50.248;19.032;2022-08-05T10:39:49;98051.47;;;37.83;25.26
40918;BME280;26644;50.248;19.032;2022-08-05T10:42:56;98060.09;;;38.01;25.50
40918;BME280;26644;50.248;19.032;2022-08-05T10:46:01;98058.38;;;38.41;25.52
40918;BME280;26644;50.248;19.032;2022-08-05T10:49:06;98039.41;;;38.43;24.39
40918;BME280;26644;50.248;19.032;2022-08-05T10:52:08;98047.06;;;38.28;24.69
40918;BME280;26644;50.248;19.032;2022-08-05T10:55:13;98057.53;;;38.12;24.70
40918;BME280;26644;50.248;19.032;2022-08-05T10:58:15;98053.41;;;38.04;24.97
40918;BME280;26644;50.248;19.032;2022-08-05T11:01:17;98051.72;;;37.16;24.66
40918;BME280;26644;50.248;19.032;2022-08-05T11:04:28;98051.22;;;36.55;25.06
40918;BME280;26644;50.248;19.032;2022-08-05T11:07:29;98052.22;;;35.43;26.02
40918;BME280;26644;50.248;19.032;2022-08-05T11:10:34;98042.06;;;34.48;26.60
40918;BME280;26644;50.248;19.032;2022-08-05T11:13:39;98046.00;;;33.92;27.31
40918;BME280;26644;50.248;19.032;2022-08-05T11:16:41;98023.09;;;33.33;28.29
40918;BME280;26644;50.248;19.032;2022-08-05T11:19:44;98022.78;;;32.94;28.64
40918;BME280;26644;50.248;19.032;2022-08-05T11:22:47;98017.25;;;32.67;29.29
40918;BME280;26644;50.248;19.032;2022-08-05T11:26:06;98033.53;;;32.26;29.89
40918;BME280;26644;50.248;19.032;2022-08-05T11:29:35;98018.22;;;32.00;29.54
40918;BME280;26644;50.248;19.032;2022-08-05T11:32:39;98012.53;;;31.76;29.83
40918;BME280;26644;50.248;19.032;2022-08-05T11:35:52;98018.53;;;31.58;30.72
40918;BME280;26644;50.248;19.032;2022-08-05T11:38:54;98019.16;;;31.46;30.25
40918;BME280;26644;50.248;19.032;2022-08-05T11:41:57;97996.28;;;31.29;30.76
40918;BME280;26644;50.248;19.032;2022-08-05T11:45:01;98030.75;;;31.28;30.94
40918;BME280;26644;50.248;19.032;2022-08-05T11:48:07;98017.13;;;31.19;31.19
40918;BME280;26644;50.248;19.032;2022-08-05T11:51:09;98020.88;;;31.12;31.76
40918;BME280;26644;50.248;19.032;2022-08-05T11:54:12;98014.47;;;31.08;32.05
40918;BME280;26644;50.248;19.032;2022-08-05T11:57:15;98009.34;;;30.99;32.02
40918;BME280;26644;50.248;19.032;2022-08-05T12:00:27;98009.50;;;30.89;31.86
40918;BME280;26644;50.248;19.032;2022-08-05T12:03:38;98005.22;;;30.77;31.96
40918;BME280;26644;50.248;19.032;2022-08-05T12:06:41;98000.69;;;30.48;32.01
40918;BME280;26644;50.248;19.032;2022-08-05T12:09:46;98004.78;;;30.47;32.50
40918;BME280;26644;50.248;19.032;2022-08-05T12:12:50;97996.31;;;30.44;31.97
40918;BME280;26644;50.248;19.032;2022-08-05T12:15:52;97993.22;;;30.34;32.45
40918;BME280;26644;50.248;19.032;2022-08-05T12:18:54;97996.53;;;30.26;32.62
40918;BME280;26644;50.248;19.032;2022-08-05T12:21:56;97993.31;;;30.27;32.57
40918;BME280;26644;50.248;19.032;2022-08-05T12:24:58;97997.41;;;30.23;32.75
40918;BME280;26644;50.248;19.032;2022-08-05T12:28:02;97985.69;;;30.20;33.13
40918;BME280;26644;50.248;19.032;2022-08-05T12:31:04;97982.13;;;30.13;32.85
40918;BME280;26644;50.248;19.032;2022-08-05T12:34:07;97971.28;;;30.08;33.10
40918;BME280;26644;50.248;19.032;2022-08-05T12:37:10;97983.69;;;30.17;32.67
40918;BME280;26644;50.248;19.032;2022-08-05T12:40:12;97963.16;;;30.10;32.99
40918;BME280;26644;50.248;19.032;2022-08-05T12:43:15;97973.97;;;30.22;32.96
40918;BME280;26644;50.248;19.032;2022-08-05T12:46:21;97977.22;;;30.17;32.92
40918;BME280;26644;50.248;19.032;2022-08-05T12:49:23;97981.66;;;30.18;33.20
40918;BME280;26644;50.248;19.032;2022-08-05T12:52:25;97968.78;;;30.13;33.26
40918;BME280;26644;50.248;19.032;2022-08-05T12:55:29;97963.91;;;30.14;32.96
40918;BME280;26644;50.248;19.032;2022-08-05T12:58:32;97973.19;;;30.18;33.35
40918;BME280;26644;50.248;19.032;2022-08-05T13:01:34;97967.91;;;30.16;33.28
40918;BME280;26644;50.248;19.032;2022-08-05T13:04:38;97969.19;;;30.12;33.08
40918;BME280;26644;50.248;19.032;2022-08-05T13:07:42;97968.78;;;30.13;33.65
40918;BME280;26644;50.248;19.032;2022-08-05T13:10:43;97959.59;;;30.02;33.18
40918;BME280;26644;50.248;19.032;2022-08-05T13:13:49;97966.09;;;29.99;33.38
40918;BME280;26644;50.248;19.032;2022-08-05T13:16:53;97957.75;;;29.88;33.16
40918;BME280;26644;50.248;19.032;2022-08-05T13:20:00;97956.16;;;29.83;33.38
40918;BME280;26644;50.248;19.032;2022-08-05T13:23:03;97954.13;;;29.87;32.95
40918;BME280;26644;50.248;19.032;2022-08-05T13:26:06;97939.84;;;29.98;33.20
40918;BME280;26644;50.248;19.032;2022-08-05T13:29:09;97949.38;;;30.12;32.79
40918;BME280;26644;50.248;19.032;2022-08-05T13:32:11;97921.66;;;29.99;32.96
40918;BME280;26644;50.248;19.032;2022-08-05T13:35:13;97944.47;;;30.16;32.76
40918;BME280;26644;50.248;19.032;2022-08-05T13:38:15;97942.41;;;30.20;32.97
40918;BME280;26644;50.248;19.032;2022-08-05T13:41:17;97942.75;;;30.26;32.66
40918;BME280;26644;50.248;19.032;2022-08-05T13:44:20;97939.09;;;30.29;32.25
40918;BME280;26644;50.248;19.032;2022-08-05T13:47:23;97944.69;;;30.32;32.59
40918;BME280;26644;50.248;19.032;2022-08-05T13:50:25;97941.78;;;30.40;32.63
40918;BME280;26644;50.248;19.032;2022-08-05T13:53:26;97936.88;;;30.44;32.17
40918;BME280;26644;50.248;19.032;2022-08-05T13:56:28;97938.41;;;30.48;32.10
40918;BME280;26644;50.248;19.032;2022-08-05T13:59:31;97940.41;;;30.51;31.82
40918;BME280;26644;50.248;19.032;2022-08-05T14:02:33;97940.41;;;30.51;32.23
40918;BME280;26644;50.248;19.032;2022-08-05T14:05:35;97936.28;;;30.56;32.12
40918;BME280;26644;50.248;19.032;2022-08-05T14:08:37;97925.09;;;30.45;32.36
40918;BME280;26644;50.248;19.032;2022-08-05T14:11:39;97931.03;;;30.54;32.39
40918;BME280;26644;50.248;19.032;2022-08-05T14:14:42;97930.25;;;30.54;32.67
40918;BME280;26644;50.248;19.032;2022-08-05T14:17:44;97936.34;;;30.52;32.45
40918;BME280;26644;50.248;19.032;2022-08-05T14:20:46;97929.81;;;30.56;32.42
40918;BME280;26644;50.248;19.032;2022-08-05T14:23:48;97925.34;;;30.58;32.38
40918;BME280;26644;50.248;19.032;2022-08-05T14:26:50;97915.66;;;30.56;32.59
40918;BME280;26644;50.248;19.032;2022-08-05T14:29:53;97926.66;;;30.50;32.86
40918;BME280;26644;50.248;19.032;2022-08-05T14:32:55;97929.88;;;30.52;32.77
40918;BME280;26644;50.248;19.032;2022-08-05T14:35:57;97914.94;;;30.48;32.55
40918;BME280;26644;50.248;19.032;2022-08-05T14:38:58;97915.69;;;30.52;32.57
40918;BME280;26644;50.248;19.032;2022-08-05T14:42:00;97899.25;;;30.43;32.79
40918;BME280;26644;50.248;19.032;2022-08-05T14:45:04;97908.03;;;30.52;32.92
40918;BME280;26644;50.248;19.032;2022-08-05T14:48:06;97915.22;;;30.57;32.51
40918;BME280;26644;50.248;19.032;2022-08-05T14:51:08;97909.03;;;30.66;32.72
40918;BME280;26644;50.248;19.032;2022-08-05T14:54:10;97902.56;;;30.65;32.33
40918;BME280;26644;50.248;19.032;2022-08-05T14:57:12;97901.09;;;30.53;31.81
40918;BME280;26644;50.248;19.032;2022-08-05T15:00:16;97904.28;;;30.59;31.96
40918;BME280;26644;50.248;19.032;2022-08-05T15:03:17;97904.75;;;30.54;31.79
40918;BME280;26644;50.248;19.032;2022-08-05T15:06:19;97899.16;;;30.50;31.60
40918;BME280;26644;50.248;19.032;2022-08-05T15:09:21;97906.84;;;30.50;31.64
40918;BME280;26644;50.248;19.032;2022-08-05T15:12:23;97900.00;;;30.47;31.61
40918;BME280;26644;50.248;19.032;2022-08-05T15:15:27;97898.34;;;30.50;31.65
40918;BME280;26644;50.248;19.032;2022-08-05T15:18:29;97902.41;;;30.49;31.42
40918;BME280;26644;50.248;19.032;2022-08-05T15:21:30;97877.09;;;30.38;30.77
40918;BME280;26644;50.248;19.032;2022-08-05T15:24:32;97879.16;;;30.34;30.85
40918;BME280;26644;50.248;19.032;2022-08-05T15:27:34;97886.84;;;30.33;30.92
40918;BME280;26644;50.248;19.032;2022-08-05T15:30:38;97895.34;;;30.33;31.30
40918;BME280;26644;50.248;19.032;2022-08-05T15:33:39;97895.38;;;30.30;31.86
40918;BME280;26644;50.248;19.032;2022-08-05T15:36:41;97886.13;;;30.26;31.64
40918;BME280;26644;50.248;19.032;2022-08-05T15:39:43;97874.16;;;30.14;31.79
40918;BME280;26644;50.248;19.032;2022-08-05T15:42:45;97890.66;;;30.19;31.92
40918;BME280;26644;50.248;19.032;2022-08-05T15:45:48;97880.59;;;30.15;31.84
40918;BME280;26644;50.248;19.032;2022-08-05T15:48:51;97883.00;;;30.16;32.21
40918;BME280;26644;50.248;19.032;2022-08-05T15:51:53;97874.22;;;30.07;32.15
40918;BME280;26644;50.248;19.032;2022-08-05T15:54:55;97880.25;;;30.13;32.37
40918;BME280;26644;50.248;19.032;2022-08-05T15:57:56;97875.84;;;30.08;32.57
40918;BME280;26644;50.248;19.032;2022-08-05T16:01:00;97861.44;;;29.95;32.44